Time;durP1;ratioP1;P1;durP2;ratioP2;P2;SDS_P1;SDS_P2;PMS_P1;PMS_P2;Temp;Humidity;BMP_temperature;BMP_pressure;BME280_temperature;BME280_humidity;BME280_pressure;Samples;Min_cycle;Max_cycle;Signal;HPM_P1;HPM_P2
2022/01/13 00:01:46;;;;;;;;;;;-4.30;99.90;;;;;;5031605;28;19987;-54
2022/01/13 00:04:15;;;;;;;;;;;-4.40;99.90;;;;;;5031911;28;20008;-52
2022/01/13 00:06:42;;;;;;;;;;;-4.30;99.90;;;;;;5031162;28;19932;-53
2022/01/13 00:09:09;;;;;;;;;;;-4.40;99.90;;;;;;5031423;28;20422;-53
2022/01/13 00:11:36;;;;;;;;;;;-4.50;99.90;;;;;;5031538;28;19932;-54
2022/01/13 00:14:24;;;;;;;;;;;-4.50;99.90;;;;;;5030783;28;20272;-52
2022/01/13 00:19:46;;;;;;;;;;;-4.60;99.90;;;;;;5014734;28;20284;-51
2022/01/13 00:22:18;;;;;;;;;;;-4.60;99.90;;;;;;5031049;28;19971;-52
2022/01/13 00:24:49;;;;;;;;;;;-4.60;99.90;;;;;;5032863;28;20280;-52
2022/01/13 00:27:16;;;;;;;;;;;-4.60;99.90;;;;;;5034001;28;19932;-52
2022/01/13 00:29:45;;;;;;;;;;;-4.60;99.90;;;;;;5034653;28;19929;-53
2022/01/13 00:32:14;;;;;;;;;;;-4.70;99.90;;;;;;5034527;28;20307;-52
2022/01/13 00:34:42;;;;;;;;;;;-4.70;99.90;;;;;;5035230;28;20461;-52
2022/01/13 00:37:09;;;;;;;;;;;-4.70;99.90;;;;;;5035224;28;19925;-53
2022/01/13 00:39:36;;;;;;;;;;;-4.70;99.90;;;;;;5034994;28;20358;-52
2022/01/13 00:42:03;;;;;;;;;;;-4.60;99.90;;;;;;5034924;28;19979;-54
2022/01/13 00:44:35;;;;;;;;;;;-4.60;99.90;;;;;;5041754;28;20342;-53
2022/01/13 00:47:04;;;;;;;;;;;-4.60;99.90;;;;;;5034579;28;19929;-52
2022/01/13 00:49:31;;;;;;;;;;;-4.50;99.90;;;;;;5034850;28;20024;-53
2022/01/13 00:51:59;;;;;;;;;;;-4.60;99.90;;;;;;5035206;28;19929;-52
2022/01/13 00:54:26;;;;;;;;;;;-4.60;99.90;;;;;;5034648;28;20391;-53
2022/01/13 00:56:52;;;;;;;;;;;-4.70;99.90;;;;;;5034611;28;19929;-52
2022/01/13 00:59:19;;;;;;;;;;;-4.80;99.90;;;;;;5034628;28;19933;-54
2022/01/13 01:01:47;;;;;;;;;;;-4.80;99.90;;;;;;5035240;28;19925;-52
2022/01/13 01:04:15;;;;;;;;;;;-4.90;99.90;;;;;;5034958;28;19971;-52
2022/01/13 01:06:42;;;;;;;;;;;-4.90;99.90;;;;;;5034597;28;19929;-52
2022/01/13 01:09:14;;;;;;;;;;;-4.90;99.90;;;;;;5034517;28;19979;-53
2022/01/13 01:11:42;;;;;;;;;;;-5.00;99.90;;;;;;5034393;28;19932;-53
2022/01/13 01:14:09;;;;;;;;;;;-5.00;99.90;;;;;;5033957;28;20354;-52
2022/01/13 01:16:36;;;;;;;;;;;-5.00;99.90;;;;;;5034885;28;19929;-53
2022/01/13 01:19:05;;;;;;;;;;;-5.00;99.90;;;;;;5034285;28;20016;-52
2022/01/13 01:21:49;;;;;;;;;;;-5.10;99.90;;;;;;5034856;28;19925;-52
2022/01/13 01:24:58;;;;;;;;;;;-4.90;99.90;;;;;;5034288;28;20055;-52
2022/01/13 01:27:22;;;;;;;;;;;-4.90;99.90;;;;;;5034033;28;19926;-53
2022/01/13 01:29:56;;;;;;;;;;;-5.00;99.90;;;;;;5034052;28;20007;-52
2022/01/13 01:32:23;;;;;;;;;;;-5.00;99.90;;;;;;5034163;28;19948;-53
2022/01/13 01:35:02;;;;;;;;;;;-5.00;99.90;;;;;;5023769;28;19925;-52
2022/01/13 01:37:30;;;;;;;;;;;-5.00;99.90;;;;;;5033600;28;19960;-52
2022/01/13 01:39:59;;;;;;;;;;;-5.00;99.90;;;;;;5034004;28;19925;-52
2022/01/13 01:42:27;;;;;;;;;;;-5.00;99.90;;;;;;5033985;28;19979;-53
2022/01/13 01:44:56;;;;;;;;;;;-5.00;99.90;;;;;;5033905;28;19925;-51
2022/01/13 01:47:24;;;;;;;;;;;-5.00;99.90;;;;;;5033951;28;20008;-52
2022/01/13 01:49:53;;;;;;;;;;;-5.00;99.90;;;;;;5033672;28;19925;-52
2022/01/13 01:52:20;;;;;;;;;;;-5.10;99.90;;;;;;5034157;28;19987;-52
2022/01/13 01:54:48;;;;;;;;;;;-5.10;99.90;;;;;;5033575;28;19929;-52
2022/01/13 01:57:17;;;;;;;;;;;-5.10;99.90;;;;;;5033830;28;20004;-51
2022/01/13 01:59:44;;;;;;;;;;;-5.10;99.90;;;;;;5033623;28;20261;-53
2022/01/13 02:02:12;;;;;;;;;;;-5.10;99.90;;;;;;5033631;28;19925;-53
2022/01/13 02:04:39;;;;;;;;;;;-5.10;99.90;;;;;;5033867;28;19941;-52
2022/01/13 02:07:07;;;;;;;;;;;-5.10;99.90;;;;;;5033737;28;20346;-53
2022/01/13 02:09:36;;;;;;;;;;;-5.10;99.90;;;;;;5032715;28;19972;-52
2022/01/13 02:12:07;;;;;;;;;;;-5.10;99.90;;;;;;5033753;28;20363;-54
2022/01/13 02:14:48;;;;;;;;;;;-5.10;99.90;;;;;;5033605;28;19928;-52
2022/01/13 02:17:22;;;;;;;;;;;-5.10;99.90;;;;;;5033331;28;19936;-52
2022/01/13 02:19:49;;;;;;;;;;;-5.20;99.90;;;;;;5033384;28;20426;-51
2022/01/13 02:22:17;;;;;;;;;;;-5.20;99.90;;;;;;5033116;28;19925;-52
2022/01/13 02:24:44;;;;;;;;;;;-5.20;99.90;;;;;;5033296;28;19925;-52
2022/01/13 02:27:11;;;;;;;;;;;-5.20;99.90;;;;;;5033081;28;20418;-53
2022/01/13 02:29:38;;;;;;;;;;;-5.20;99.90;;;;;;5032822;28;19925;-52
2022/01/13 02:32:07;;;;;;;;;;;-5.20;99.90;;;;;;5032874;28;19930;-51
2022/01/13 02:34:34;;;;;;;;;;;-5.20;99.90;;;;;;5032711;28;19932;-53
2022/01/13 02:37:01;;;;;;;;;;;-5.20;99.90;;;;;;5033087;28;20260;-52
2022/01/13 02:39:29;;;;;;;;;;;-5.20;99.90;;;;;;5032853;28;19929;-52
2022/01/13 02:41:56;;;;;;;;;;;-5.10;99.90;;;;;;5033025;28;20357;-54
2022/01/13 02:44:24;;;;;;;;;;;-5.20;99.90;;;;;;5031944;28;19932;-52
2022/01/13 02:49:36;;;;;;;;;;;-5.20;99.90;;;;;;5031446;28;19925;-54
2022/01/13 02:52:03;;;;;;;;;;;-5.20;99.90;;;;;;5032873;28;19925;-52
2022/01/13 02:54:31;;;;;;;;;;;-5.30;99.90;;;;;;5032500;28;20346;-52
2022/01/13 02:56:58;;;;;;;;;;;-5.20;99.90;;;;;;5032784;28;19933;-53
2022/01/13 02:59:25;;;;;;;;;;;-5.20;99.90;;;;;;5032509;28;20387;-52
2022/01/13 03:01:52;;;;;;;;;;;-5.30;99.90;;;;;;5032381;28;19975;-54
2022/01/13 03:04:21;;;;;;;;;;;-5.30;99.90;;;;;;5032438;28;20367;-53
2022/01/13 03:06:48;;;;;;;;;;;-5.30;99.90;;;;;;5032272;28;19925;-52
2022/01/13 03:09:15;;;;;;;;;;;-5.20;99.90;;;;;;5031947;28;19929;-52
2022/01/13 03:11:45;;;;;;;;;;;-5.20;99.90;;;;;;5032548;28;19936;-54
2022/01/13 03:14:12;;;;;;;;;;;-5.20;99.90;;;;;;5031819;28;19925;-53
2022/01/13 03:16:39;;;;;;;;;;;-5.20;99.90;;;;;;5032440;28;19925;-53
2022/01/13 03:19:06;;;;;;;;;;;-5.20;99.90;;;;;;5032448;28;20505;-52
2022/01/13 03:21:33;;;;;;;;;;;-5.10;99.90;;;;;;5031960;28;19925;-54
2022/01/13 03:24:02;;;;;;;;;;;-5.10;99.90;;;;;;5032149;28;19991;-52
2022/01/13 03:26:28;;;;;;;;;;;-5.20;99.90;;;;;;5031842;28;19925;-54
2022/01/13 03:29:05;;;;;;;;;;;-5.30;99.90;;;;;;5032016;28;19929;-52
2022/01/13 03:31:32;;;;;;;;;;;-5.20;99.90;;;;;;5031389;28;19965;-52
2022/01/13 03:33:59;;;;;;;;;;;-5.20;99.90;;;;;;5032142;28;20015;-52
2022/01/13 03:36:25;;;;;;;;;;;-5.20;99.90;;;;;;5025082;28;19980;-53
2022/01/13 03:38:53;;;;;;;;;;;-5.20;99.90;;;;;;5012237;28;19999;-52
2022/01/13 03:41:20;;;;;;;;;;;-5.20;99.90;;;;;;5017516;28;19925;-52
2022/01/13 03:43:50;;;;;;;;;;;-5.20;99.90;;;;;;5031768;28;19952;-54
2022/01/13 03:46:18;;;;;;;;;;;-5.30;99.90;;;;;;5032076;28;19960;-53
2022/01/13 03:48:45;;;;;;;;;;;-5.30;99.90;;;;;;5023535;28;20334;-53
2022/01/13 03:51:12;;;;;;;;;;;-5.30;99.90;;;;;;5029695;28;19925;-54
2022/01/13 03:54:05;;;;;;;;;;;-5.20;99.90;;;;;;5030974;28;19971;-52
2022/01/13 03:56:51;;;;;;;;;;;-5.30;99.90;;;;;;5031525;28;20353;-53
2022/01/13 03:59:37;;;;;;;;;;;-5.40;99.90;;;;;;5026410;28;20040;-54
2022/01/13 04:02:07;;;;;;;;;;;-5.40;99.90;;;;;;5031278;28;19925;-52
2022/01/13 04:04:35;;;;;;;;;;;-5.40;99.90;;;;;;5031397;28;19995;-52
2022/01/13 04:07:10;;;;;;;;;;;-5.30;99.90;;;;;;5031225;28;19925;-52
2022/01/13 04:09:57;;;;;;;;;;;-5.40;99.90;;;;;;5031518;28;19987;-53
2022/01/13 04:12:26;;;;;;;;;;;-5.50;99.90;;;;;;5030915;28;19972;-51
2022/01/13 04:14:56;;;;;;;;;;;-5.60;99.90;;;;;;5031488;28;19977;-52
2022/01/13 04:17:25;;;;;;;;;;;-5.60;99.90;;;;;;5031537;28;19936;-53
2022/01/13 04:19:52;;;;;;;;;;;-5.50;99.90;;;;;;5031269;28;19925;-53
2022/01/13 04:22:19;;;;;;;;;;;-5.60;99.90;;;;;;5031197;28;19925;-53
2022/01/13 04:24:47;;;;;;;;;;;-5.60;99.90;;;;;;5031488;28;19929;-52
2022/01/13 04:27:21;;;;;;;;;;;-5.60;99.90;;;;;;5030606;28;19925;-53
2022/01/13 04:29:49;;;;;;;;;;;-5.70;99.90;;;;;;5031378;28;19925;-51
2022/01/13 04:32:16;;;;;;;;;;;-5.70;99.90;;;;;;5031298;28;19925;-53
2022/01/13 04:34:44;;;;;;;;;;;-5.70;99.90;;;;;;5030840;28;19996;-52
2022/01/13 04:37:11;;;;;;;;;;;-5.80;99.90;;;;;;5030070;28;19929;-52
2022/01/13 04:39:37;;;;;;;;;;;-5.80;99.90;;;;;;5029292;28;19979;-53
2022/01/13 04:42:06;;;;;;;;;;;-5.80;99.90;;;;;;5030862;28;19937;-54
2022/01/13 04:44:33;;;;;;;;;;;-5.80;99.90;;;;;;5035058;28;19932;-53
2022/01/13 04:47:00;;;;;;;;;;;-5.70;99.90;;;;;;5038355;28;20387;-54
2022/01/13 04:49:27;;;;;;;;;;;-5.80;99.90;;;;;;5030192;28;20047;-52
2022/01/13 04:51:55;;;;;;;;;;;-5.80;99.90;;;;;;5031064;28;19979;-51
2022/01/13 04:54:22;;;;;;;;;;;-5.80;99.90;;;;;;5031016;28;20314;-51
2022/01/13 04:57:05;;;;;;;;;;;-5.80;99.90;;;;;;5030934;28;19925;-52
2022/01/13 04:59:32;;;;;;;;;;;-5.80;99.90;;;;;;5030922;28;19932;-51
2022/01/13 05:02:00;;;;;;;;;;;-5.80;99.90;;;;;;5030381;28;19925;-51
2022/01/13 05:04:27;;;;;;;;;;;-5.80;99.90;;;;;;5031143;28;19994;-51
2022/01/13 05:06:55;;;;;;;;;;;-5.90;99.90;;;;;;5030814;28;19929;-52
2022/01/13 05:09:22;;;;;;;;;;;-5.80;99.90;;;;;;5030854;28;19929;-52
2022/01/13 05:11:48;;;;;;;;;;;-5.60;99.90;;;;;;5035227;28;19929;-51
2022/01/13 05:14:15;;;;;;;;;;;-5.70;99.90;;;;;;5037031;28;19925;-50
2022/01/13 05:16:54;;;;;;;;;;;-5.80;99.90;;;;;;5034578;28;20373;-50
2022/01/13 05:19:25;;;;;;;;;;;-5.80;99.90;;;;;;5033896;28;19970;-51
2022/01/13 05:22:15;;;;;;;;;;;-5.80;99.90;;;;;;5026189;28;20011;-50
2022/01/13 05:24:44;;;;;;;;;;;-5.80;99.90;;;;;;5034550;28;20302;-51
2022/01/13 05:27:11;;;;;;;;;;;-5.80;99.90;;;;;;5034402;28;19925;-50
2022/01/13 05:29:38;;;;;;;;;;;-5.80;99.90;;;;;;5034119;28;19925;-51
2022/01/13 05:32:05;;;;;;;;;;;-5.80;99.90;;;;;;5034021;28;19929;-50
2022/01/13 05:34:32;;;;;;;;;;;-5.70;99.90;;;;;;5046881;28;20019;-52
2022/01/13 05:36:59;;;;;;;;;;;-5.80;99.90;;;;;;5034594;28;20012;-51
2022/01/13 05:39:25;;;;;;;;;;;-5.80;99.90;;;;;;5033369;28;20354;-51
2022/01/13 05:41:54;;;;;;;;;;;-5.70;99.90;;;;;;5026461;28;19925;-51
2022/01/13 05:44:21;;;;;;;;;;;-5.70;99.90;;;;;;5028462;28;20035;-51
2022/01/13 05:46:47;;;;;;;;;;;-5.80;99.90;;;;;;5033926;28;19926;-51
2022/01/13 05:49:14;;;;;;;;;;;-5.80;99.90;;;;;;5033425;28;20452;-51
2022/01/13 05:51:41;;;;;;;;;;;-5.80;99.90;;;;;;5033324;28;19933;-52
2022/01/13 05:54:08;;;;;;;;;;;-5.80;99.90;;;;;;5033133;28;20407;-51
2022/01/13 05:56:35;;;;;;;;;;;-5.80;99.90;;;;;;5033910;28;19925;-52
2022/01/13 05:59:03;;;;;;;;;;;-5.90;99.90;;;;;;5033551;28;19932;-51
2022/01/13 06:01:30;;;;;;;;;;;-5.80;99.90;;;;;;5069052;22;19936;-51
2022/01/13 06:03:56;;;;;;;;;;;-5.80;99.90;;;;;;5088949;28;20321;-51
2022/01/13 06:06:23;;;;;;;;;;;-5.80;99.90;;;;;;5088089;28;19940;-50
2022/01/13 06:08:50;;;;;;;;;;;-5.80;99.90;;;;;;5086901;28;19925;-51
2022/01/13 06:11:21;;;;;;;;;;;-5.80;99.90;;;;;;5073201;28;19928;-51
2022/01/13 06:13:48;;;;;;;;;;;-5.90;99.90;;;;;;5067867;28;20023;-51
2022/01/13 06:16:16;;;;;;;;;;;-5.80;99.90;;;;;;5084560;28;19924;-53
2022/01/13 06:18:43;;;;;;;;;;;-5.90;99.90;;;;;;5072451;28;19989;-51
2022/01/13 06:21:10;;;;;;;;;;;-5.80;99.90;;;;;;5070450;28;19924;-51
2022/01/13 06:23:36;;;;;;;;;;;-5.80;99.90;;;;;;5072267;28;19929;-51
2022/01/13 06:26:06;;;;;;;;;;;-5.80;99.90;;;;;;5078444;28;19970;-51
2022/01/13 06:28:32;;;;;;;;;;;-5.80;99.90;;;;;;5074039;28;19939;-53
2022/01/13 06:30:59;;;;;;;;;;;-5.70;99.90;;;;;;5071636;28;19936;-51
2022/01/13 06:33:27;;;;;;;;;;;-5.70;99.90;;;;;;5073815;28;19925;-51
2022/01/13 06:35:54;;;;;;;;;;;-5.60;99.90;;;;;;5070067;28;19924;-51
2022/01/13 06:38:21;;;;;;;;;;;-5.60;99.90;;;;;;5072145;28;19941;-51
2022/01/13 06:40:49;;;;;;;;;;;-5.60;99.90;;;;;;5074757;28;19974;-51
2022/01/13 06:43:16;;;;;;;;;;;-5.60;99.90;;;;;;5072689;28;19925;-51
2022/01/13 06:45:42;;;;;;;;;;;-5.60;99.90;;;;;;5072258;28;19924;-51
2022/01/13 06:48:09;;;;;;;;;;;-5.60;99.90;;;;;;5073016;28;19924;-51
2022/01/13 06:50:38;;;;;;;;;;;-5.60;99.90;;;;;;5070757;28;19924;-51
2022/01/13 06:53:08;;;;;;;;;;;-5.60;99.90;;;;;;5072398;28;19965;-51
2022/01/13 06:55:35;;;;;;;;;;;-5.70;99.90;;;;;;5075602;28;19985;-51
2022/01/13 06:58:02;;;;;;;;;;;-5.70;99.90;;;;;;5072767;28;20394;-51
2022/01/13 07:00:28;;;;;;;;;;;-5.80;99.90;;;;;;5072522;28;20448;-51
2022/01/13 07:02:58;;;;;;;;;;;-5.70;99.90;;;;;;5066357;28;20302;-51
2022/01/13 07:05:25;;;;;;;;;;;-5.70;99.90;;;;;;5072985;28;19924;-51
2022/01/13 07:07:57;;;;;;;;;;;-5.70;99.90;;;;;;5072742;28;19970;-51
2022/01/13 07:10:23;;;;;;;;;;;-5.70;99.90;;;;;;5072827;28;19928;-51
2022/01/13 07:12:50;;;;;;;;;;;-5.70;99.90;;;;;;5072831;28;19925;-51
2022/01/13 07:15:17;;;;;;;;;;;-5.70;99.90;;;;;;5072804;28;20037;-52
2022/01/13 07:17:44;;;;;;;;;;;-5.70;99.90;;;;;;5072338;28;19928;-51
2022/01/13 07:20:11;;;;;;;;;;;-5.70;99.90;;;;;;5072374;28;19924;-51
2022/01/13 07:22:38;;;;;;;;;;;-5.80;99.90;;;;;;5072731;28;19928;-51
2022/01/13 07:25:07;;;;;;;;;;;-5.70;99.90;;;;;;5072024;28;19928;-51
2022/01/13 07:27:34;;;;;;;;;;;-5.70;99.90;;;;;;5071375;28;19928;-51
2022/01/13 07:30:01;;;;;;;;;;;-5.70;99.90;;;;;;5075031;28;19925;-51
2022/01/13 07:32:29;;;;;;;;;;;-5.60;99.90;;;;;;5070929;28;20319;-51
2022/01/13 07:34:56;;;;;;;;;;;-5.60;99.90;;;;;;5071685;28;20344;-51
2022/01/13 07:37:24;;;;;;;;;;;-5.60;99.90;;;;;;5070152;28;19931;-51
2022/01/13 07:39:51;;;;;;;;;;;-5.60;99.90;;;;;;5067511;28;20409;-51
2022/01/13 07:42:19;;;;;;;;;;;-5.60;99.90;;;;;;5058968;28;19924;-51
2022/01/13 07:44:46;;;;;;;;;;;-5.50;99.90;;;;;;5060338;28;20434;-52
2022/01/13 07:47:12;;;;;;;;;;;-5.40;99.90;;;;;;5071861;28;19924;-51
2022/01/13 07:49:39;;;;;;;;;;;-5.30;99.90;;;;;;5071903;28;19970;-51
2022/01/13 07:52:06;;;;;;;;;;;-5.20;99.90;;;;;;5072093;28;20056;-51
2022/01/13 07:54:33;;;;;;;;;;;-5.20;99.90;;;;;;5072176;28;19970;-51
2022/01/13 07:56:59;;;;;;;;;;;-5.10;99.90;;;;;;5072397;28;19970;-51
2022/01/13 07:59:29;;;;;;;;;;;-5.10;99.90;;;;;;5071815;28;19928;-52
2022/01/13 08:01:56;;;;;;;;;;;-5.10;99.90;;;;;;5072195;28;20375;-51
2022/01/13 08:04:23;;;;;;;;;;;-4.90;99.90;;;;;;5071937;28;20022;-51
2022/01/13 08:06:50;;;;;;;;;;;-4.90;99.90;;;;;;5071821;28;19931;-51
2022/01/13 08:09:16;;;;;;;;;;;-4.80;99.90;;;;;;5071858;28;19940;-51
2022/01/13 08:11:44;;;;;;;;;;;-4.60;99.90;;;;;;5071900;28;20435;-51
2022/01/13 08:14:11;;;;;;;;;;;-4.60;99.90;;;;;;5071697;28;19928;-52
2022/01/13 08:16:43;;;;;;;;;;;-4.60;99.90;;;;;;5069307;28;19924;-51
2022/01/13 08:21:54;;;;;;;;;;;-4.30;99.90;;;;;;5070110;28;19928;-51
2022/01/13 08:24:20;;;;;;;;;;;-4.10;99.90;;;;;;5071339;28;19932;-51
2022/01/13 08:26:47;;;;;;;;;;;-3.90;99.90;;;;;;5070205;28;19925;-51
2022/01/13 08:29:14;;;;;;;;;;;-3.80;99.90;;;;;;5071102;28;19925;-51
2022/01/13 08:31:42;;;;;;;;;;;-3.60;99.90;;;;;;5074182;28;20355;-51
2022/01/13 08:34:09;;;;;;;;;;;-3.10;99.90;;;;;;5073112;28;19929;-51
2022/01/13 08:36:36;;;;;;;;;;;-2.40;99.90;;;;;;5072011;28;19931;-51
2022/01/13 08:39:03;;;;;;;;;;;-1.80;99.90;;;;;;5070617;28;19970;-51
2022/01/13 08:41:30;;;;;;;;;;;-0.90;99.90;;;;;;5071882;28;19928;-51
2022/01/13 08:43:57;;;;;;;;;;;-0.10;99.90;;;;;;5071967;28;19925;-51
2022/01/13 08:46:24;;;;;;;;;;;0.60;99.90;;;;;;5071798;28;19935;-51
2022/01/13 08:48:53;;;;;;;;;;;1.60;99.90;;;;;;5074104;28;19968;-51
2022/01/13 08:51:19;;;;;;;;;;;2.50;99.90;;;;;;5075611;28;19978;-51
2022/01/13 08:53:46;;;;;;;;;;;3.90;99.90;;;;;;5075691;28;20337;-51
2022/01/13 08:56:13;;;;;;;;;;;5.30;99.90;;;;;;5075805;28;19978;-50
2022/01/13 08:58:40;;;;;;;;;;;6.30;99.90;;;;;;5074346;28;19925;-51
2022/01/13 09:01:07;;;;;;;;;;;6.50;99.90;;;;;;5074523;28;19929;-51
2022/01/13 09:03:34;;;;;;;;;;;6.30;99.90;;;;;;5066174;28;20005;-50
2022/01/13 09:06:03;;;;;;;;;;;5.40;99.90;;;;;;5074316;28;19925;-51
2022/01/13 09:08:30;;;;;;;;;;;5.20;99.90;;;;;;5076967;28;19925;-51
2022/01/13 09:10:57;;;;;;;;;;;4.20;99.90;;;;;;5074960;28;19978;-52
2022/01/13 09:13:24;;;;;;;;;;;3.90;99.90;;;;;;5074207;28;19986;-52
2022/01/13 09:15:57;;;;;;;;;;;4.20;99.90;;;;;;5074669;28;20344;-52
2022/01/13 09:18:33;;;;;;;;;;;4.20;99.90;;;;;;5074067;28;19982;-52
2022/01/13 09:21:00;;;;;;;;;;;4.10;99.90;;;;;;5074472;28;19925;-52
2022/01/13 09:23:28;;;;;;;;;;;5.00;99.90;;;;;;5074264;28;19924;-51
2022/01/13 09:25:55;;;;;;;;;;;5.90;99.90;;;;;;5074129;28;19924;-51
2022/01/13 09:28:22;;;;;;;;;;;6.40;99.90;;;;;;5073275;28;19924;-52
2022/01/13 09:30:49;;;;;;;;;;;6.00;99.90;;;;;;5073831;28;19928;-51
2022/01/13 09:33:15;;;;;;;;;;;5.50;99.90;;;;;;5074301;28;19928;-51
2022/01/13 09:35:42;;;;;;;;;;;5.30;99.90;;;;;;5074429;28;20005;-52
2022/01/13 09:38:09;;;;;;;;;;;5.10;99.90;;;;;;5073501;28;20829;-52
2022/01/13 09:40:37;;;;;;;;;;;5.30;99.90;;;;;;5074237;28;20327;-51
2022/01/13 09:43:06;;;;;;;;;;;5.60;99.90;;;;;;5073745;28;19924;-51
2022/01/13 09:45:33;;;;;;;;;;;5.10;99.90;;;;;;5073541;28;19986;-51
2022/01/13 09:48:02;;;;;;;;;;;4.80;99.90;;;;;;5073122;28;19978;-52
2022/01/13 09:50:29;;;;;;;;;;;4.60;99.90;;;;;;5073527;28;20417;-51
2022/01/13 09:52:55;;;;;;;;;;;4.40;99.90;;;;;;5073644;28;19928;-51
2022/01/13 09:55:22;;;;;;;;;;;4.10;99.90;;;;;;5073698;28;19974;-51
2022/01/13 09:57:51;;;;;;;;;;;3.90;99.90;;;;;;5073320;28;20287;-51
2022/01/13 10:00:19;;;;;;;;;;;3.80;99.90;;;;;;5073237;28;19924;-51
2022/01/13 10:02:46;;;;;;;;;;;4.10;99.90;;;;;;5073218;28;19940;-51
2022/01/13 10:05:13;;;;;;;;;;;3.90;99.90;;;;;;5073962;28;19975;-51
2022/01/13 10:07:41;;;;;;;;;;;3.10;99.90;;;;;;5073456;28;19931;-50
2022/01/13 10:10:09;;;;;;;;;;;2.40;99.90;;;;;;5073847;28;19931;-51
2022/01/13 10:12:38;;;;;;;;;;;2.10;99.90;;;;;;5073163;28;20445;-51
2022/01/13 10:17:52;;;;;;;;;;;1.70;99.90;;;;;;5073617;28;20429;-51
2022/01/13 10:20:20;;;;;;;;;;;1.90;99.90;;;;;;5073719;28;19931;-51
2022/01/13 10:22:47;;;;;;;;;;;2.80;99.90;;;;;;5073830;28;19928;-51
2022/01/13 10:25:35;;;;;;;;;;;4.30;99.90;;;;;;5073986;28;19928;-51
2022/01/13 10:28:16;;;;;;;;;;;5.70;99.90;;;;;;5068268;28;19971;-51
2022/01/13 10:30:44;;;;;;;;;;;7.90;99.90;;;;;;5073306;28;19933;-51
2022/01/13 10:33:16;;;;;;;;;;;8.70;99.90;;;;;;5073929;28;19924;-51
2022/01/13 10:35:44;;;;;;;;;;;9.00;98.60;;;;;;5073318;28;20015;-51
2022/01/13 10:38:13;;;;;;;;;;;8.00;99.20;;;;;;5073138;28;19929;-51
2022/01/13 10:40:41;;;;;;;;;;;8.20;98.40;;;;;;5074133;28;20302;-52
2022/01/13 10:43:12;;;;;;;;;;;9.10;98.90;;;;;;5074926;28;19924;-51
2022/01/13 10:45:41;;;;;;;;;;;9.20;96.80;;;;;;5073688;28;19924;-51
2022/01/13 10:48:09;;;;;;;;;;;9.20;96.40;;;;;;5073100;28;19970;-52
2022/01/13 10:50:38;;;;;;;;;;;8.20;97.30;;;;;;5072866;28;19925;-51
2022/01/13 10:53:09;;;;;;;;;;;6.40;99.30;;;;;;5073645;28;19970;-52
2022/01/13 10:55:37;;;;;;;;;;;4.90;99.90;;;;;;5072198;28;19943;-51
2022/01/13 10:58:04;;;;;;;;;;;3.60;99.90;;;;;;5072383;28;19932;-51
2022/01/13 11:00:32;;;;;;;;;;;2.90;99.90;;;;;;5072931;28;19924;-51
2022/01/13 11:03:04;;;;;;;;;;;2.50;99.90;;;;;;5070566;28;19924;-51
2022/01/13 11:05:33;;;;;;;;;;;2.30;99.90;;;;;;5053093;28;19929;-51
2022/01/13 11:08:02;;;;;;;;;;;1.90;99.90;;;;;;5055282;28;19978;-51
2022/01/13 11:10:28;;;;;;;;;;;1.40;99.90;;;;;;5072116;28;20344;-51
2022/01/13 11:12:58;;;;;;;;;;;1.20;99.90;;;;;;5073153;28;19970;-51
2022/01/13 11:15:25;;;;;;;;;;;1.30;99.90;;;;;;5073071;28;19925;-51
2022/01/13 11:17:53;;;;;;;;;;;1.50;99.90;;;;;;5072508;28;19931;-53
2022/01/13 11:20:21;;;;;;;;;;;1.70;99.90;;;;;;5072766;28;19985;-51
2022/01/13 11:22:50;;;;;;;;;;;1.70;99.90;;;;;;5072956;28;19928;-51
2022/01/13 11:25:17;;;;;;;;;;;1.80;99.90;;;;;;5072687;28;19986;-52
2022/01/13 11:27:45;;;;;;;;;;;1.90;99.90;;;;;;5072532;28;20447;-51
2022/01/13 11:30:14;;;;;;;;;;;1.80;99.90;;;;;;5053162;28;19979;-51
2022/01/13 11:32:40;;;;;;;;;;;1.80;99.90;;;;;;5065715;28;19924;-51
2022/01/13 11:35:08;;;;;;;;;;;1.90;99.90;;;;;;5073132;28;19928;-51
2022/01/13 11:37:35;;;;;;;;;;;1.50;99.90;;;;;;5073989;28;19974;-51
2022/01/13 11:40:04;;;;;;;;;;;1.60;99.90;;;;;;5082291;28;19931;-50
2022/01/13 11:42:44;;;;;;;;;;;1.80;99.90;;;;;;5084516;28;19924;-51
2022/01/13 11:45:12;;;;;;;;;;;1.90;99.90;;;;;;5084864;28;19924;-51
2022/01/13 11:47:39;;;;;;;;;;;1.90;99.90;;;;;;5076106;28;20348;-51
2022/01/13 11:50:09;;;;;;;;;;;1.90;99.90;;;;;;5073565;28;19924;-51
2022/01/13 11:52:42;;;;;;;;;;;1.70;99.90;;;;;;5072142;28;20394;-51
2022/01/13 11:55:21;;;;;;;;;;;1.90;99.90;;;;;;5072066;28;20424;-51
2022/01/13 11:57:48;;;;;;;;;;;1.80;99.90;;;;;;5071772;28;20006;-52
2022/01/13 12:00:33;;;;;;;;;;;1.70;99.90;;;;;;5071815;28;19999;-51
2022/01/13 12:03:00;;;;;;;;;;;1.70;99.90;;;;;;5079210;22;20349;-54
2022/01/13 12:05:29;;;;;;;;;;;1.80;99.90;;;;;;5050905;28;20005;-53
2022/01/13 12:07:57;;;;;;;;;;;1.90;99.90;;;;;;5050752;28;19928;-54
2022/01/13 12:10:53;;;;;;;;;;;1.90;99.90;;;;;;5035103;28;19929;-54
2022/01/13 12:13:38;;;;;;;;;;;1.60;99.90;;;;;;5038227;28;19986;-54
2022/01/13 12:16:05;;;;;;;;;;;1.60;99.90;;;;;;5050750;28;20375;-52
2022/01/13 12:18:52;;;;;;;;;;;1.60;99.90;;;;;;5058084;28;20530;-51
2022/01/13 12:21:25;;;;;;;;;;;1.50;99.90;;;;;;5051882;28;19932;-52
2022/01/13 12:23:51;;;;;;;;;;;1.40;99.90;;;;;;5055779;28;20370;-52
2022/01/13 12:26:37;;;;;;;;;;;1.50;99.90;;;;;;5055283;28;19925;-53
2022/01/13 12:29:11;;;;;;;;;;;1.20;99.90;;;;;;5054985;28;19934;-51
2022/01/13 12:31:48;;;;;;;;;;;1.20;99.90;;;;;;5055317;28;20410;-53
2022/01/13 12:34:20;;;;;;;;;;;1.40;99.90;;;;;;5055399;28;20015;-52
2022/01/13 12:36:47;;;;;;;;;;;1.60;99.90;;;;;;5055159;28;19929;-51
2022/01/13 12:39:15;;;;;;;;;;;1.80;99.90;;;;;;5055133;28;19932;-52
2022/01/13 12:41:53;;;;;;;;;;;2.00;99.90;;;;;;5055154;28;19925;-52
2022/01/13 12:45:27;;;;;;;;;;;2.20;99.90;;;;;;5045225;28;19933;-52
2022/01/13 12:47:08;;;;;;;;;;;2.20;99.90;;;;;;5054971;28;19925;-51
2022/01/13 12:49:34;;;;;;;;;;;2.30;99.90;;;;;;5054215;28;19978;-53
2022/01/13 12:52:01;;;;;;;;;;;2.40;99.90;;;;;;5055078;28;19988;-52
2022/01/13 12:54:28;;;;;;;;;;;2.30;99.90;;;;;;5055125;28;19970;-52
2022/01/13 12:56:55;;;;;;;;;;;2.10;99.90;;;;;;5055117;28;19986;-52
2022/01/13 12:59:24;;;;;;;;;;;2.20;99.90;;;;;;5054430;28;19950;-52
2022/01/13 13:01:50;;;;;;;;;;;2.20;99.90;;;;;;5054618;28;19932;-51
2022/01/13 13:04:17;;;;;;;;;;;2.00;99.90;;;;;;5053971;28;19929;-53
2022/01/13 13:06:45;;;;;;;;;;;1.90;99.90;;;;;;5054197;28;20517;-52
2022/01/13 13:09:13;;;;;;;;;;;2.10;99.90;;;;;;5053085;28;19925;-52
2022/01/13 13:11:41;;;;;;;;;;;2.10;99.90;;;;;;5054510;28;20275;-53
2022/01/13 13:14:15;;;;;;;;;;;2.20;99.90;;;;;;5054464;28;20352;-52
2022/01/13 13:16:44;;;;;;;;;;;2.20;99.90;;;;;;5054723;28;19925;-51
2022/01/13 13:19:11;;;;;;;;;;;2.20;99.90;;;;;;5054220;28;19937;-52
2022/01/13 13:21:37;;;;;;;;;;;2.00;99.90;;;;;;5054619;28;19979;-53
2022/01/13 13:24:04;;;;;;;;;;;2.10;99.90;;;;;;5054574;28;19998;-52
2022/01/13 13:26:31;;;;;;;;;;;2.20;99.90;;;;;;5041295;28;20350;-53
2022/01/13 13:28:58;;;;;;;;;;;2.30;99.90;;;;;;5040613;28;19925;-52
2022/01/13 13:31:27;;;;;;;;;;;2.20;99.90;;;;;;5054310;28;19928;-52
2022/01/13 13:33:58;;;;;;;;;;;2.10;99.90;;;;;;5053217;28;19925;-52
2022/01/13 13:36:26;;;;;;;;;;;2.20;99.90;;;;;;5054289;28;19984;-52
2022/01/13 13:39:05;;;;;;;;;;;2.20;99.90;;;;;;5053627;28;20016;-52
2022/01/13 13:41:33;;;;;;;;;;;2.30;99.90;;;;;;5054288;28;19932;-52
2022/01/13 13:44:00;;;;;;;;;;;2.30;99.90;;;;;;5053947;28;20379;-51
2022/01/13 13:46:27;;;;;;;;;;;2.30;99.90;;;;;;5054162;28;19929;-48
2022/01/13 13:48:54;;;;;;;;;;;2.20;99.90;;;;;;5053440;28;19979;-49
2022/01/13 13:51:23;;;;;;;;;;;2.00;99.90;;;;;;5053998;28;19929;-50
2022/01/13 13:54:10;;;;;;;;;;;2.20;99.90;;;;;;5053794;28;19924;-50
2022/01/13 13:56:38;;;;;;;;;;;2.20;99.90;;;;;;5053821;28;19940;-50
2022/01/13 13:59:05;;;;;;;;;;;2.10;99.90;;;;;;5053346;28;20023;-50
2022/01/13 14:01:32;;;;;;;;;;;2.10;99.90;;;;;;5053372;28;19925;-49
2022/01/13 14:03:59;;;;;;;;;;;2.10;99.90;;;;;;5053813;28;19928;-50
2022/01/13 14:06:41;;;;;;;;;;;2.10;99.90;;;;;;5053287;28;19925;-50
2022/01/13 14:09:08;;;;;;;;;;;2.10;99.90;;;;;;5052955;28;19933;-50
2022/01/13 14:11:45;;;;;;;;;;;2.10;99.90;;;;;;5052932;28;20333;-52
2022/01/13 14:14:13;;;;;;;;;;;2.20;99.90;;;;;;5033487;28;19979;-49
2022/01/13 14:16:40;;;;;;;;;;;2.20;99.90;;;;;;5045093;28;19983;-49
2022/01/13 14:19:08;;;;;;;;;;;2.30;99.90;;;;;;5052752;28;20395;-49
2022/01/13 14:21:53;;;;;;;;;;;2.30;99.90;;;;;;5053419;28;20028;-50
2022/01/13 14:24:34;;;;;;;;;;;2.20;99.90;;;;;;5053438;28;19924;-49
2022/01/13 14:27:08;;;;;;;;;;;2.30;99.90;;;;;;5052559;28;20357;-48
2022/01/13 14:29:35;;;;;;;;;;;2.30;99.90;;;;;;5052978;28;19924;-50
2022/01/13 14:32:19;;;;;;;;;;;2.50;99.90;;;;;;5052528;28;19925;-50
2022/01/13 14:34:47;;;;;;;;;;;2.30;99.90;;;;;;5052490;28;20472;-50
2022/01/13 14:37:14;;;;;;;;;;;2.30;99.90;;;;;;5053110;28;19929;-50
2022/01/13 14:39:42;;;;;;;;;;;2.20;99.90;;;;;;5052650;28;19933;-50
2022/01/13 14:42:13;;;;;;;;;;;2.20;99.90;;;;;;5053150;28;19925;-49
2022/01/13 14:44:40;;;;;;;;;;;2.30;99.90;;;;;;5052187;28;19925;-50